Soper, Oklahoma
Current Conditions -  °F | °C
As of 2:15 AM on Monday 22 Dec 2014 (Local Time) from KHHW Reporting Station
Overcast Overcast  
Wind Chill: 51°   Ceiling: 1100
Heat Index: 51°   Visibility: 10mi
Dew Point: 46°   Wind: 10mph
Humidity: 86%   Direction: 160°SSE
Pressure: 29.68"   Gusts: NA
Location:  34.03°N, 95.7°W
Report Text: KHHW 220815Z AUTO 16009KT 10SM OVC011 10/08 A2968 RMK AO2 T01030080
Loading
Personal Weather Stations






























Interactive Weather Map New forecast layout! Learn more

10-Day Weather Forecast

Advertisements
Track Severe Weather on mobile